Terminal Aerodrome Forecast
Issued by NWS Amarillo, TX

Home | Current Version | Previous Version | Text Only | Print | Product List | Glossary On
Versions: 1 2 3 4 5 6 7 8 9 10 11 12 13 14 15 16 17 18 19 20 21
000
FTUS44 KAMA 010304 AAA
TAFGUY
TAF AMD
KGUY 010304Z 0103/0124 34018KT P6SM OVC040
      TEMPO 0104/0108 34018G28KT
     FM011000 36016G24KT P6SM -RA OVC020=

USA.gov is the U.S. government's official web portal to all federal, state and local government web resources and services.